Pagina principale
METAR-TAF:

METAR-TAF

Aeroporti :

Sion, Svizzera

latitudine: 46-13N, longitudine: 007-20E, altezza: 482 m

Osservazione

Il bollettino è stato emesso 36 minuti fa, alle 10:50 UTC
Vento 2 kt da direzioni variabili
Temperature 13°C
Umidità 47%
Pressione 1024 hPa
Visibilità 10 km o più
Poco nuvoloso ad un'altezza di 8000 ft

METAR: LSGS 261050Z VRB02KT 9999 FEW080 13/02 Q1024

Ora: 13:26 (11:26 UTC)

Previsione

Il bollettino è stato emesso 3 ore e 1 minuti fa, alle 08:25 UTC
Previsione valida dal 26 alle 09 UTC al 26 alle 18 UTC
Vento 2 kt da direzioni variabili
Visibilità 10 km o più
Poco nuvoloso ad un'altezza di 8000 ft
Nubi sparse ad un'altezza di 12000 ft

TAF: LSGS 260825Z 2609/2618 VRB02KT 9999 FEW080 SCT120

Osservazioni e previsioni meteorologiche di più di 4000 aeroporti (messaggi METAR e TAF).

Le stazioni disponibili sono rappresentate dai dischi gialli e rossi sulla carta.

Puntare il mouse per vedere il nome della stazione.

Clicca sopra per visualizzare le osservazioni e previsioni meteorologiche.

Per cambiare la mappa : fare clic sui pulsanti verdi con una croce nera per ingrandire, il pulsante verde con un trattino per diminuire, o sulla freccia verde per le mappe adiacenti.


METAR-TAF: